Аэропорт: Кольцово. Екатеринбург

ICAO: USSS

METAR:
2021-04-21 21:00:00
USSS 212100Z 00000MPS CAVOK 01/M06 Q1031 R08R/010060 NOSIG RMK QFE753/1004
METAR:
2021-04-21 19:45:00
TAF USSS 211945Z 2121/2221 16003G08MPS CAVOK BECMG 2204/2206 18006G16MPS BECMG 2206/2208 SCT030